createdAt,value
2023-01-17T00:02:04.319Z,94.83
2023-01-17T00:05:25.882Z,94.55
2023-01-17T00:08:46.804Z,94.60
2023-01-17T00:11:49.568Z,94.52
2023-01-17T00:14:54.586Z,94.62
2023-01-17T00:17:58.022Z,94.54
2023-01-17T00:21:35.893Z,94.61
2023-01-17T00:24:57.416Z,94.33
2023-01-17T00:28:00.158Z,94.39
2023-01-17T00:31:04.060Z,94.50
2023-01-17T00:34:06.364Z,94.40
2023-01-17T00:37:08.893Z,94.27
2023-01-17T00:40:11.537Z,94.24
2023-01-17T00:43:36.788Z,93.88
2023-01-17T00:46:57.648Z,93.61
2023-01-17T00:50:18.847Z,93.52
2023-01-17T00:53:39.839Z,93.49
2023-01-17T00:57:01.200Z,93.40
2023-01-17T01:00:23.651Z,93.33
2023-01-17T01:03:44.806Z,93.54
2023-01-17T01:07:05.872Z,93.22
2023-01-17T01:10:27.870Z,93.21
2023-01-17T01:13:50.849Z,93.00
2023-01-17T01:17:11.750Z,92.88
2023-01-17T01:20:32.526Z,92.94
2023-01-17T01:23:54.262Z,93.01
2023-01-17T01:27:15.106Z,93.35
2023-01-17T01:30:36.396Z,93.36
2023-01-17T01:33:39.034Z,93.54
2023-01-17T01:36:41.655Z,93.72
2023-01-17T01:39:44.080Z,93.79
2023-01-17T01:42:57.439Z,94.04
2023-01-17T01:45:59.814Z,94.18
2023-01-17T01:49:29.672Z,94.25
2023-01-17T01:52:34.751Z,94.40
2023-01-17T01:55:40.881Z,94.35
2023-01-17T01:58:49.396Z,94.27
2023-01-17T02:01:55.364Z,94.57
2023-01-17T02:04:59.777Z,94.47
2023-01-17T02:08:08.326Z,94.40
2023-01-17T02:11:11.666Z,94.63
2023-01-17T02:14:18.492Z,94.77
2023-01-17T02:17:29.991Z,94.82
2023-01-17T02:20:57.220Z,94.85
2023-01-17T02:24:15.197Z,94.99
2023-01-17T02:27:55.838Z,94.77
2023-01-17T02:31:08.994Z,94.89
2023-01-17T02:34:25.246Z,94.93
2023-01-17T02:37:49.177Z,95.07
2023-01-17T02:41:07.889Z,95.10
2023-01-17T02:44:15.379Z,95.25
2023-01-17T02:47:28.041Z,95.20
2023-01-17T02:51:03.074Z,95.19
2023-01-17T02:54:28.356Z,95.11
2023-01-17T02:57:37.114Z,95.14
2023-01-17T03:00:57.950Z,95.15
2023-01-17T03:04:50.182Z,95.08
2023-01-17T03:07:53.808Z,95.06
2023-01-17T03:10:57.426Z,95.00
2023-01-17T03:13:59.900Z,94.74
2023-01-17T03:17:02.656Z,94.76
2023-01-17T03:20:05.476Z,94.84
2023-01-17T03:23:08.148Z,94.74
2023-01-17T03:26:10.517Z,94.31
2023-01-17T03:29:13.860Z,94.54
2023-01-17T03:32:16.139Z,94.38
2023-01-17T03:35:18.858Z,94.34
2023-01-17T03:38:21.209Z,94.35
2023-01-17T03:41:23.899Z,94.50
2023-01-17T03:44:26.300Z,94.46
2023-01-17T03:47:28.959Z,94.39
2023-01-17T03:50:31.470Z,94.20
2023-01-17T03:53:34.138Z,94.18
2023-01-17T03:56:36.486Z,94.16
2023-01-17T03:59:39.138Z,94.03
2023-01-17T04:02:41.616Z,93.87
2023-01-17T04:05:44.268Z,93.81
2023-01-17T04:08:46.629Z,93.88
2023-01-17T04:11:50.959Z,93.65
2023-01-17T04:14:53.469Z,93.63
2023-01-17T04:17:56.601Z,93.54
2023-01-17T04:20:58.913Z,93.28
2023-01-17T04:24:01.542Z,93.31
2023-01-17T04:27:07.068Z,93.33
2023-01-17T04:30:10.485Z,93.39
2023-01-17T04:33:12.863Z,93.28
2023-01-17T04:36:15.513Z,93.28
2023-01-17T04:39:17.935Z,93.14
2023-01-17T04:42:20.578Z,93.18
2023-01-17T04:45:23.176Z,92.73
2023-01-17T04:48:27.263Z,92.85
2023-01-17T04:51:29.654Z,92.90
2023-01-17T04:54:32.324Z,92.69
2023-01-17T04:57:34.870Z,92.68
2023-01-17T05:00:37.490Z,92.64
2023-01-17T05:03:39.925Z,92.62
2023-01-17T05:06:43.257Z,92.63
2023-01-17T05:09:45.654Z,92.24
2023-01-17T05:12:59.176Z,92.18
2023-01-17T05:16:01.519Z,92.22
2023-01-17T05:19:04.320Z,91.99
2023-01-17T05:22:14.877Z,92.03
2023-01-17T05:25:17.667Z,91.73
2023-01-17T05:28:20.014Z,92.02
2023-01-17T05:31:22.754Z,92.11
2023-01-17T05:34:25.246Z,92.05
2023-01-17T05:37:27.844Z,92.09
2023-01-17T05:40:32.954Z,92.35
2023-01-17T05:43:35.585Z,92.27
2023-01-17T05:46:37.999Z,92.14
2023-01-17T05:49:40.675Z,91.90
2023-01-17T05:52:49.777Z,91.57
2023-01-17T05:55:52.773Z,91.58
2023-01-17T05:58:55.222Z,91.64
2023-01-17T06:01:58.205Z,91.52
2023-01-17T06:05:03.271Z,91.15
2023-01-17T06:08:06.050Z,91.39
2023-01-17T06:11:08.819Z,91.13
2023-01-17T06:14:11.222Z,91.54
2023-01-17T06:17:13.835Z,91.75
2023-01-17T06:20:16.254Z,92.75
2023-01-17T06:23:19.052Z,93.27
2023-01-17T06:26:21.418Z,92.60
2023-01-17T06:29:24.133Z,93.05
2023-01-17T06:32:26.471Z,92.46
2023-01-17T06:35:29.583Z,92.27
2023-01-17T06:38:34.833Z,93.02
2023-01-17T06:41:37.701Z,93.34
2023-01-17T06:44:40.034Z,93.66
2023-01-17T06:47:42.953Z,93.75
2023-01-17T06:50:46.733Z,93.72
2023-01-17T06:53:49.450Z,94.06
2023-01-17T06:56:51.892Z,93.19
2023-01-17T06:59:54.522Z,92.95
2023-01-17T07:02:56.851Z,92.33
2023-01-17T07:06:02.203Z,91.30
2023-01-17T07:09:04.797Z,90.42
2023-01-17T07:12:07.729Z,90.78
2023-01-17T07:15:11.194Z,91.22
2023-01-17T07:18:14.739Z,90.91
2023-01-17T07:21:17.277Z,90.96
2023-01-17T07:24:21.479Z,90.51
2023-01-17T07:27:24.819Z,90.87
2023-01-17T07:30:27.818Z,91.18
2023-01-17T07:33:30.166Z,90.68
2023-01-17T07:36:33.434Z,91.19
2023-01-17T07:39:37.328Z,90.83
2023-01-17T07:42:40.012Z,90.98
2023-01-17T07:45:50.736Z,89.85
2023-01-17T07:48:53.422Z,88.92
2023-01-17T07:51:55.812Z,88.95
2023-01-17T07:54:58.613Z,88.32
2023-01-17T07:58:02.947Z,87.74
2023-01-17T08:01:09.152Z,87.78
2023-01-17T08:04:11.952Z,87.59
2023-01-17T08:07:14.536Z,86.82
2023-01-17T08:10:19.964Z,86.24
2023-01-17T08:13:22.512Z,86.28
2023-01-17T08:16:25.758Z,86.28
2023-01-17T08:19:28.111Z,85.38
2023-01-17T08:22:31.107Z,86.16
2023-01-17T08:25:35.382Z,85.83
2023-01-17T08:28:38.149Z,85.03
2023-01-17T08:31:40.668Z,85.35
2023-01-17T08:34:43.350Z,84.17
2023-01-17T08:37:46.340Z,83.51
2023-01-17T08:40:49.142Z,83.01
2023-01-17T08:43:52.126Z,80.67
2023-01-17T08:46:54.760Z,80.19
2023-01-17T08:49:59.644Z,79.49
2023-01-17T08:53:02.307Z,78.14
2023-01-17T08:56:05.798Z,78.65
2023-01-17T08:59:11.895Z,78.44
2023-01-17T09:02:15.791Z,78.33
2023-01-17T09:05:18.451Z,79.08
2023-01-17T09:08:20.927Z,80.21
2023-01-17T09:11:23.583Z,79.86
2023-01-17T09:14:25.971Z,79.87
2023-01-17T09:17:29.085Z,79.87
2023-01-17T09:20:31.697Z,79.17
2023-01-17T09:23:34.301Z,79.08
2023-01-17T09:26:36.683Z,79.23
2023-01-17T09:29:39.315Z,78.61
2023-01-17T09:32:41.759Z,78.00
2023-01-17T09:35:45.084Z,77.19
2023-01-17T09:38:47.987Z,76.86
2023-01-17T09:42:26.156Z,76.98
2023-01-17T09:45:31.982Z,76.09
2023-01-17T09:48:38.789Z,76.40
2023-01-17T09:51:42.448Z,76.17
2023-01-17T09:54:48.089Z,76.50
2023-01-17T09:58:10.137Z,75.65
2023-01-17T10:01:31.676Z,75.60
2023-01-17T10:04:58.616Z,76.03
2023-01-17T10:08:16.661Z,74.84
2023-01-17T10:11:40.147Z,74.65
2023-01-17T10:15:03.174Z,75.05
2023-01-17T10:18:30.377Z,75.51
2023-01-17T10:22:02.345Z,75.18
2023-01-17T10:25:23.224Z,75.52
2023-01-17T10:28:33.565Z,75.13
2023-01-17T10:31:51.204Z,75.11
2023-01-17T10:34:53.697Z,75.12
2023-01-17T10:37:58.521Z,74.97
2023-01-17T10:41:21.970Z,75.33
2023-01-17T10:44:35.437Z,74.58
2023-01-17T10:47:39.504Z,73.96
2023-01-17T10:51:04.945Z,74.58
2023-01-17T10:54:24.218Z,74.53
2023-01-17T10:57:28.195Z,73.83
2023-01-17T11:00:52.393Z,73.96
2023-01-17T11:03:55.423Z,74.05
2023-01-17T11:07:24.725Z,73.49
2023-01-17T11:10:48.968Z,72.35
2023-01-17T11:13:53.332Z,71.17
2023-01-17T11:17:04.612Z,70.04
2023-01-17T11:20:35.257Z,71.08
2023-01-17T11:23:41.228Z,70.13
2023-01-17T11:26:49.573Z,70.50
2023-01-17T11:30:07.642Z,69.05
2023-01-17T11:33:45.348Z,68.61
2023-01-17T11:36:50.055Z,68.29
2023-01-17T11:40:08.134Z,67.30
2023-01-17T11:43:18.724Z,68.57
2023-01-17T11:46:21.882Z,67.74
2023-01-17T11:49:25.553Z,66.46
2023-01-17T11:52:37.587Z,67.54
2023-01-17T11:55:40.843Z,66.53
2023-01-17T11:58:45.899Z,66.65
2023-01-17T12:02:01.199Z,65.64
2023-01-17T12:05:15.370Z,65.78
2023-01-17T12:08:20.810Z,65.92
2023-01-17T12:12:07.285Z,65.25
2023-01-17T12:15:21.393Z,63.69
2023-01-17T12:18:33.562Z,64.60
2023-01-17T12:21:46.630Z,64.39
2023-01-17T12:24:52.305Z,64.69
2023-01-17T12:28:06.493Z,64.20
2023-01-17T12:31:44.687Z,64.11
2023-01-17T12:34:57.308Z,63.72
2023-01-17T12:38:11.398Z,63.82
2023-01-17T12:41:30.416Z,64.30
2023-01-17T12:45:07.561Z,63.85
2023-01-17T12:48:16.691Z,63.09
2023-01-17T12:51:29.032Z,63.89
2023-01-17T12:54:39.797Z,63.69
2023-01-17T12:57:47.797Z,64.24
2023-01-17T13:00:59.711Z,63.54
2023-01-17T13:04:09.056Z,63.41
2023-01-17T13:07:33.067Z,64.45
2023-01-17T13:10:58.773Z,65.57
2023-01-17T13:14:02.361Z,65.39
2023-01-17T13:17:22.543Z,65.23
2023-01-17T13:20:58.304Z,65.28
2023-01-17T13:24:03.900Z,65.15
2023-01-17T13:27:12.684Z,64.49
2023-01-17T13:30:34.605Z,64.49
2023-01-17T13:33:47.800Z,63.91
2023-01-17T13:37:00.727Z,64.61
2023-01-17T13:40:05.710Z,65.17
2023-01-17T13:43:22.193Z,66.24
2023-01-17T13:46:24.569Z,67.27
2023-01-17T13:49:34.693Z,68.11
2023-01-17T13:52:38.255Z,68.47
2023-01-17T13:55:46.827Z,69.39
2023-01-17T13:58:54.540Z,69.86
2023-01-17T14:01:57.720Z,70.29
2023-01-17T14:05:32.097Z,70.27
2023-01-17T14:08:38.770Z,69.61
2023-01-17T14:12:09.115Z,69.62
2023-01-17T14:15:23.008Z,70.02
2023-01-17T14:18:38.129Z,70.38
2023-01-17T14:21:40.673Z,70.52
2023-01-17T14:25:00.990Z,71.10
2023-01-17T14:28:19.031Z,71.54
2023-01-17T14:31:24.300Z,71.89
2023-01-17T14:34:26.836Z,71.08
2023-01-17T14:37:46.568Z,71.13
2023-01-17T14:41:02.726Z,70.94
2023-01-17T14:44:05.402Z,71.37
2023-01-17T14:47:13.895Z,71.60
2023-01-17T14:50:23.677Z,71.99
2023-01-17T14:53:31.687Z,71.45
2023-01-17T14:56:34.472Z,71.51
2023-01-17T14:59:36.798Z,71.52
2023-01-17T15:02:44.179Z,71.43
2023-01-17T15:05:51.033Z,72.02
2023-01-17T15:08:54.268Z,71.59
2023-01-17T15:11:58.097Z,71.84
2023-01-17T15:15:01.666Z,72.13
2023-01-17T15:18:27.590Z,72.33
2023-01-17T15:21:35.494Z,72.24
2023-01-17T15:24:43.481Z,72.04
2023-01-17T15:27:46.072Z,72.90
2023-01-17T15:31:03.752Z,72.76
2023-01-17T15:34:14.123Z,72.71
2023-01-17T15:37:40.663Z,73.02
2023-01-17T15:40:43.719Z,72.57
2023-01-17T15:43:46.403Z,72.73
2023-01-17T15:46:49.130Z,72.32
2023-01-17T15:49:52.198Z,72.30
2023-01-17T15:53:06.034Z,72.32
2023-01-17T15:56:31.940Z,72.13
2023-01-17T15:59:50.471Z,72.25
2023-01-17T16:02:59.038Z,72.38
2023-01-17T16:06:03.046Z,72.52
2023-01-17T16:09:22.355Z,72.47
2023-01-17T16:12:25.056Z,72.32
2023-01-17T16:15:28.877Z,72.32
2023-01-17T16:18:31.673Z,72.09
2023-01-17T16:21:34.125Z,72.16
2023-01-17T16:24:37.238Z,71.90
2023-01-17T16:27:41.504Z,71.61
2023-01-17T16:30:45.177Z,71.76
2023-01-17T16:33:49.473Z,71.33
2023-01-17T16:36:54.444Z,71.76
2023-01-17T16:39:57.117Z,72.80
2023-01-17T16:43:01.114Z,72.66
2023-01-17T16:46:03.628Z,73.28
2023-01-17T16:49:06.439Z,73.92
2023-01-17T16:52:08.902Z,74.35
2023-01-17T16:55:15.031Z,75.09
2023-01-17T16:58:20.440Z,75.41
2023-01-17T17:01:23.683Z,76.12
2023-01-17T17:04:26.127Z,76.84
2023-01-17T17:07:28.831Z,77.27
2023-01-17T17:10:31.552Z,78.23
2023-01-17T17:13:36.031Z,79.58
2023-01-17T17:16:39.140Z,80.85
2023-01-17T17:19:41.855Z,81.43
2023-01-17T17:22:50.294Z,82.41
2023-01-17T17:25:56.894Z,83.61
2023-01-17T17:28:59.335Z,83.93
2023-01-17T17:32:02.111Z,84.66
2023-01-17T17:35:05.223Z,85.40
2023-01-17T17:38:08.010Z,86.05
2023-01-17T17:41:10.377Z,86.58
2023-01-17T17:44:13.238Z,86.66
2023-01-17T17:47:16.175Z,87.06
2023-01-17T17:50:18.969Z,87.32
2023-01-17T17:53:21.791Z,87.48
2023-01-17T17:56:24.582Z,87.75
2023-01-17T17:59:27.015Z,87.73
2023-01-17T18:02:31.619Z,87.85
2023-01-17T18:05:34.392Z,88.57
2023-01-17T18:08:38.487Z,88.74
2023-01-17T18:11:43.342Z,88.71
2023-01-17T18:14:45.714Z,89.43
2023-01-17T18:17:52.496Z,89.56
2023-01-17T18:20:55.048Z,89.70
2023-01-17T18:24:00.308Z,90.06
2023-01-17T18:27:02.857Z,90.01
2023-01-17T18:30:06.150Z,90.17
2023-01-17T18:33:09.852Z,90.12
2023-01-17T18:36:13.353Z,90.31
2023-01-17T18:39:27.291Z,90.79
2023-01-17T18:42:31.152Z,91.05
2023-01-17T18:45:33.517Z,91.06
2023-01-17T18:48:37.182Z,90.84
2023-01-17T18:51:39.571Z,91.17
2023-01-17T18:54:42.276Z,91.73
2023-01-17T18:57:44.710Z,91.57
2023-01-17T19:00:50.330Z,91.80
2023-01-17T19:03:56.386Z,91.85
2023-01-17T19:06:59.014Z,91.95
2023-01-17T19:10:02.130Z,92.00
2023-01-17T19:13:04.855Z,91.77
2023-01-17T19:16:09.709Z,91.73
2023-01-17T19:19:14.812Z,91.76
2023-01-17T19:22:17.752Z,91.82
2023-01-17T19:25:21.192Z,92.42
2023-01-17T19:28:23.781Z,92.38
2023-01-17T19:31:28.562Z,92.54
2023-01-17T19:34:31.325Z,92.82
2023-01-17T19:37:34.318Z,92.83
2023-01-17T19:40:36.895Z,92.86
2023-01-17T19:43:39.881Z,92.88
2023-01-17T19:46:42.418Z,92.80
2023-01-17T19:49:45.695Z,92.98
2023-01-17T19:52:48.178Z,93.03
2023-01-17T19:55:51.089Z,92.37
2023-01-17T19:58:54.042Z,92.71
2023-01-17T20:01:59.446Z,92.86
2023-01-17T20:05:02.545Z,92.56
2023-01-17T20:08:05.026Z,92.84
2023-01-17T20:11:10.896Z,92.48
2023-01-17T20:14:14.993Z,92.30
2023-01-17T20:17:17.841Z,92.21
2023-01-17T20:20:22.806Z,92.49
2023-01-17T20:23:25.597Z,92.89
2023-01-17T20:26:36.769Z,93.23
2023-01-17T20:29:40.766Z,93.09
2023-01-17T20:32:43.110Z,93.27
2023-01-17T20:35:46.260Z,92.59
2023-01-17T20:38:49.097Z,92.90
2023-01-17T20:41:52.110Z,92.92
2023-01-17T20:44:54.480Z,92.79
2023-01-17T20:47:57.477Z,92.98
2023-01-17T20:51:10.561Z,93.18
2023-01-17T20:54:17.852Z,92.78
2023-01-17T20:57:20.281Z,92.58
2023-01-17T21:00:22.978Z,92.76
2023-01-17T21:03:29.615Z,92.68
2023-01-17T21:06:32.290Z,92.60
2023-01-17T21:09:34.713Z,92.94
2023-01-17T21:12:37.521Z,93.06
2023-01-17T21:15:48.099Z,92.48
2023-01-17T21:18:52.326Z,92.16
2023-01-17T21:21:56.271Z,92.14
2023-01-17T21:25:00.309Z,92.40
2023-01-17T21:28:05.915Z,92.43
2023-01-17T21:31:20.451Z,92.10
2023-01-17T21:34:25.459Z,92.12
2023-01-17T21:37:28.297Z,91.79
2023-01-17T21:40:31.233Z,91.59
2023-01-17T21:43:34.418Z,91.52
2023-01-17T21:46:39.218Z,92.17
2023-01-17T21:49:41.930Z,92.02
2023-01-17T21:52:46.517Z,91.79
2023-01-17T21:56:08.825Z,91.87
2023-01-17T21:59:11.178Z,92.21
2023-01-17T22:02:13.851Z,91.82
2023-01-17T22:05:18.028Z,91.75
2023-01-17T22:08:20.669Z,91.14
2023-01-17T22:11:25.890Z,91.92
2023-01-17T22:14:28.234Z,92.05
2023-01-17T22:17:30.982Z,92.15
2023-01-17T22:20:34.210Z,92.42
2023-01-17T22:23:36.848Z,92.98
2023-01-17T22:26:41.808Z,92.60
2023-01-17T22:29:44.575Z,92.22
2023-01-17T22:32:46.999Z,92.60
2023-01-17T22:35:57.791Z,92.26
2023-01-17T22:39:00.904Z,92.25
2023-01-17T22:42:03.682Z,92.20
2023-01-17T22:45:07.835Z,92.45
2023-01-17T22:48:10.650Z,92.25
2023-01-17T22:51:15.374Z,92.24
2023-01-17T22:54:19.421Z,92.27
2023-01-17T22:57:23.242Z,92.18
2023-01-17T23:00:25.945Z,92.49
2023-01-17T23:03:28.400Z,92.31
2023-01-17T23:06:36.986Z,92.14
2023-01-17T23:09:39.261Z,91.99
2023-01-17T23:12:41.995Z,92.18
2023-01-17T23:16:02.962Z,92.09
2023-01-17T23:19:23.911Z,91.79
2023-01-17T23:22:29.125Z,91.82
2023-01-17T23:25:31.702Z,91.90
2023-01-17T23:28:34.211Z,91.80
2023-01-17T23:31:36.864Z,91.36
2023-01-17T23:34:39.214Z,91.33
2023-01-17T23:38:00.684Z,91.02
2023-01-17T23:41:24.727Z,91.03
2023-01-17T23:44:31.682Z,91.01
2023-01-17T23:47:34.119Z,90.67
2023-01-17T23:50:41.760Z,90.58
2023-01-17T23:53:44.049Z,90.52
2023-01-17T23:56:46.684Z,90.34
2023-01-17T23:59:49.033Z,90.46
